Zim Chicago — A8SI9 — position and weather

sailwx.info

Track history (hours):
 
Tides and Currents Weather Stations Pressure Air Temp Water Temp Dewpoint Dewpoint Depression Visibility Wind Speed Wind Dir Waves Ship Positions

Zim Chicago

Last reported at 2016-Jun-25 07:10 UTC. Time now 2016-Jun-26 06:38 UTC.
Position S 34°35' W 058°22'.

Length 334 m; draft 11.4 m.

Type: Cargo ship. MMSI: 636014223.

Date/timePositionNaut miles runAvg speedWind from/ knotsBaromVisibWave heightAir tempDewpointWater temp
2016-Jun-25 07:10S 34°35' W 058°22'0 0.0
2016-Jun-25 02:25S 34°35' W 058°22'0 0.0
2016-Jun-25 01:31S 34°35' W 058°22'0 0.0
2016-Jun-25 00:31S 34°35' W 058°22'0 0.0
2016-Jun-24 23:28S 34°35' W 058°22'0 0.0
2016-Jun-24 22:16S 34°35' W 058°22'0 0.0
2016-Jun-24 18:25S 34°35' W 058°22'0 0.0
2016-Jun-24 17:31S 34°35' W 058°22'0 0.0
2016-Jun-24 13:07S 34°35' W 058°22'0 0.0
2016-Jun-24 12:19S 34°35' W 058°22'0 0.0
2016-Jun-24 11:28S 34°35' W 058°22'1 0.2
2016-Jun-24 04:33S 34°36' W 058°22'8 7.6
2016-Jun-24 03:27S 34°37' W 058°12'1111.6
2016-Jun-24 02:28S 34°41' W 057°58'1010.7
2016-Jun-24 01:33S 34°44' W 057°47'1313.0
2016-Jun-24 00:34S 34°46' W 057°32'  
2016-Jun-20 07:25S 27°55' W 048°12'1311.2
2016-Jun-20 06:15S 27°42' W 048°11'811.5
2016-Jun-20 05:33S 27°34' W 048°11'1111.0
2016-Jun-20 04:33S 27°23' W 048°11'1410.9
2016-Jun-20 03:15S 27°08' W 048°11'143 2.8
2016-Jun-18 00:33S 24°57' W 047°09'7 7.1
2016-Jun-17 23:33S 24°52' W 047°03'8 7.5
2016-Jun-17 22:33S 24°48' W 046°56'8 8.0
2016-Jun-17 21:33S 24°42' W 046°50'8 8.1
2016-Jun-17 20:32S 24°37' W 046°43'8 8.2
2016-Jun-17 19:33S 24°32' W 046°36'9 8.9
2016-Jun-17 18:33S 24°25' W 046°30'1919.4
2016-Jun-17 17:33S 24°07' W 046°23'10 9.9
2016-Jun-17 16:33S 23°58' W 046°18'0 0.3
2016-Jun-17 15:28S 23°58' W 046°18'0 0.0
2016-Jun-17 14:28S 23°58' W 046°18'0 0.0
2016-Jun-17 13:31S 23°58' W 046°18'0 0.0
2016-Jun-17 12:22S 23°58' W 046°18'0 0.0
2016-Jun-17 11:31S 23°58' W 046°18'0 0.0
2016-Jun-17 10:25S 23°58' W 046°18'0 0.0
2016-Jun-17 09:28S 23°58' W 046°18'0 0.0
2016-Jun-17 08:28S 23°58' W 046°18'0 0.0
2016-Jun-17 07:31S 23°58' W 046°18'0 0.0
2016-Jun-17 06:31S 23°58' W 046°18'0 0.0
2016-Jun-17 05:22S 23°58' W 046°18'0 0.0
2016-Jun-17 04:31S 23°58' W 046°18'0 0.0
2016-Jun-17 03:28S 23°58' W 046°18'0 0.0
2016-Jun-17 02:22S 23°58' W 046°18'0 0.0
2016-Jun-17 01:28S 23°58' W 046°18'0 0.0
2016-Jun-17 00:28S 23°58' W 046°18'0 0.0
2016-Jun-16 23:10S 23°58' W 046°18'0 0.0
2016-Jun-16 22:31S 23°58' W 046°18'0 0.0
2016-Jun-16 21:28S 23°58' W 046°18'0 0.0
2016-Jun-16 20:31S 23°58' W 046°18'0 0.0
2016-Jun-16 19:25S 23°58' W 046°18'0 0.0
2016-Jun-16 18:19S 23°58' W 046°18'0 0.0
2016-Jun-16 17:28S 23°58' W 046°18'0 0.0
2016-Jun-16 16:31S 23°58' W 046°18'0 0.0
2016-Jun-16 15:33S 23°58' W 046°18'4 4.1
2016-Jun-16 14:33S 24°01' W 046°21'9 8.8
2016-Jun-16 13:33S 24°09' W 046°23'4 4.4
2016-Jun-16 12:33S 24°14' W 046°23'1313.4
2016-Jun-16 11:33S 24°25' W 046°14'1513.7
2016-Jun-16 10:27S 24°32' W 045°60'1513.1
2016-Jun-16 09:20S 24°39' W 045°46'2713.7
2016-Jun-16 07:22S 24°52' W 045°20'  
Track history (hours):
 
Tides and Currents Weather Stations Pressure Air Temp Water Temp Dewpoint Dewpoint Depression Visibility Wind Speed Wind Dir Waves Ship Positions

Zim Chicago

Last reported at 2016-Jun-25 07:10 UTC. Time now 2016-Jun-26 06:38 UTC.
Position S 34°35' W 058°22'.

Length 334 m; draft 11.4 m.

Type: Cargo ship. MMSI: 636014223.

Date/timePositionNaut miles runAvg speedWind from/ knotsBaromVisibWave heightAir tempDewpointWater temp
2016-Jun-25 07:10S 34°35' W 058°22'0 0.0
2016-Jun-25 02:25S 34°35' W 058°22'0 0.0
2016-Jun-25 01:31S 34°35' W 058°22'0 0.0
2016-Jun-25 00:31S 34°35' W 058°22'0 0.0
2016-Jun-24 23:28S 34°35' W 058°22'0 0.0
2016-Jun-24 22:16S 34°35' W 058°22'0 0.0
2016-Jun-24 18:25S 34°35' W 058°22'0 0.0
2016-Jun-24 17:31S 34°35' W 058°22'0 0.0
2016-Jun-24 13:07S 34°35' W 058°22'0 0.0
2016-Jun-24 12:19S 34°35' W 058°22'0 0.0
2016-Jun-24 11:28S 34°35' W 058°22'1 0.2
2016-Jun-24 04:33S 34°36' W 058°22'8 7.6
2016-Jun-24 03:27S 34°37' W 058°12'1111.6
2016-Jun-24 02:28S 34°41' W 057°58'1010.7
2016-Jun-24 01:33S 34°44' W 057°47'1313.0
2016-Jun-24 00:34S 34°46' W 057°32'  
2016-Jun-20 07:25S 27°55' W 048°12'1311.2
2016-Jun-20 06:15S 27°42' W 048°11'811.5
2016-Jun-20 05:33S 27°34' W 048°11'1111.0
2016-Jun-20 04:33S 27°23' W 048°11'1410.9
2016-Jun-20 03:15S 27°08' W 048°11'143 2.8
2016-Jun-18 00:33S 24°57' W 047°09'7 7.1
2016-Jun-17 23:33S 24°52' W 047°03'8 7.5
2016-Jun-17 22:33S 24°48' W 046°56'8 8.0
2016-Jun-17 21:33S 24°42' W 046°50'8 8.1
2016-Jun-17 20:32S 24°37' W 046°43'8 8.2
2016-Jun-17 19:33S 24°32' W 046°36'9 8.9
2016-Jun-17 18:33S 24°25' W 046°30'1919.4
2016-Jun-17 17:33S 24°07' W 046°23'10 9.9
2016-Jun-17 16:33S 23°58' W 046°18'0 0.3
2016-Jun-17 15:28S 23°58' W 046°18'0 0.0
2016-Jun-17 14:28S 23°58' W 046°18'0 0.0
2016-Jun-17 13:31S 23°58' W 046°18'0 0.0
2016-Jun-17 12:22S 23°58' W 046°18'0 0.0
2016-Jun-17 11:31S 23°58' W 046°18'0 0.0
2016-Jun-17 10:25S 23°58' W 046°18'0 0.0
2016-Jun-17 09:28S 23°58' W 046°18'0 0.0
2016-Jun-17 08:28S 23°58' W 046°18'0 0.0
2016-Jun-17 07:31S 23°58' W 046°18'0 0.0
2016-Jun-17 06:31S 23°58' W 046°18'0 0.0
2016-Jun-17 05:22S 23°58' W 046°18'0 0.0
2016-Jun-17 04:31S 23°58' W 046°18'0 0.0
2016-Jun-17 03:28S 23°58' W 046°18'0 0.0
2016-Jun-17 02:22S 23°58' W 046°18'0 0.0
2016-Jun-17 01:28S 23°58' W 046°18'0 0.0
2016-Jun-17 00:28S 23°58' W 046°18'0 0.0
2016-Jun-16 23:10S 23°58' W 046°18'0 0.0
2016-Jun-16 22:31S 23°58' W 046°18'0 0.0
2016-Jun-16 21:28S 23°58' W 046°18'0 0.0
2016-Jun-16 20:31S 23°58' W 046°18'0 0.0
2016-Jun-16 19:25S 23°58' W 046°18'0 0.0
2016-Jun-16 18:19S 23°58' W 046°18'0 0.0
2016-Jun-16 17:28S 23°58' W 046°18'0 0.0
2016-Jun-16 16:31S 23°58' W 046°18'0 0.0
2016-Jun-16 15:33S 23°58' W 046°18'4 4.1
2016-Jun-16 14:33S 24°01' W 046°21'9 8.8
2016-Jun-16 13:33S 24°09' W 046°23'4 4.4
2016-Jun-16 12:33S 24°14' W 046°23'1313.4
2016-Jun-16 11:33S 24°25' W 046°14'1513.7
2016-Jun-16 10:27S 24°32' W 045°60'1513.1
2016-Jun-16 09:20S 24°39' W 045°46'2713.7
2016-Jun-16 07:22S 24°52' W 045°20'  

Dump ship's entire track history